createdAt,value
2022-12-18T00:00:34.389Z,89.29
2022-12-18T00:03:01.202Z,89.35
2022-12-18T00:05:27.779Z,89.39
2022-12-18T00:07:55.447Z,89.32
2022-12-18T00:10:21.927Z,88.81
2022-12-18T00:12:48.454Z,88.49
2022-12-18T00:15:14.997Z,88.48
2022-12-18T00:17:45.438Z,88.53
2022-12-18T00:20:13.474Z,88.65
2022-12-18T00:22:39.962Z,88.49
2022-12-18T00:25:06.791Z,88.54
2022-12-18T00:27:33.321Z,88.67
2022-12-18T00:29:59.815Z,88.44
2022-12-18T00:32:26.396Z,88.07
2022-12-18T00:34:52.884Z,88.21
2022-12-18T00:37:20.417Z,87.75
2022-12-18T00:39:49.121Z,87.87
2022-12-18T00:42:34.114Z,87.96
2022-12-18T00:45:00.622Z,87.82
2022-12-18T00:47:27.144Z,87.87
2022-12-18T00:49:53.631Z,87.95
2022-12-18T00:52:20.187Z,88.09
2022-12-18T00:54:46.677Z,88.23
2022-12-18T01:23:12.537Z,87.21
2022-12-18T01:25:39.414Z,86.99
2022-12-18T01:28:08.787Z,87.02
2022-12-18T01:30:35.607Z,87.29
2022-12-18T01:33:02.254Z,87.52
2022-12-18T01:35:28.854Z,87.39
2022-12-18T01:37:58.091Z,87.27
2022-12-18T01:40:25.119Z,87.28
2022-12-18T01:42:53.567Z,87.36
2022-12-18T01:45:20.268Z,87.16
2022-12-18T01:48:01.708Z,87.26
2022-12-18T01:50:35.698Z,87.53
2022-12-18T01:53:11.516Z,87.51
2022-12-18T01:55:46.293Z,87.57
2022-12-18T01:58:13.103Z,87.45
2022-12-18T02:00:40.088Z,86.94
2022-12-18T02:03:07.266Z,86.87
2022-12-18T02:06:00.658Z,86.80
2022-12-18T02:08:37.108Z,87.03
2022-12-18T02:11:15.210Z,87.24
2022-12-18T02:13:57.912Z,87.25
2022-12-18T02:16:37.644Z,87.27
2022-12-18T02:19:17.746Z,87.36
2022-12-18T02:21:56.097Z,87.43
2022-12-18T02:24:31.026Z,87.55
2022-12-18T02:27:08.638Z,87.70
2022-12-18T02:29:45.726Z,87.79
2022-12-18T02:32:17.999Z,87.85
2022-12-18T02:34:45.691Z,88.30
2022-12-18T02:37:15.672Z,88.65
2022-12-18T02:39:46.440Z,88.87
2022-12-18T02:42:13.502Z,89.09
2022-12-18T02:44:49.105Z,89.28
2022-12-18T02:47:17.734Z,89.64
2022-12-18T02:49:50.122Z,89.76
2022-12-18T02:52:22.301Z,89.84
2022-12-18T02:55:17.904Z,89.72
2022-12-18T02:57:53.115Z,89.80
2022-12-18T03:00:33.023Z,89.87
2022-12-18T03:03:30.975Z,89.79
2022-12-18T03:06:04.814Z,90.04
2022-12-18T03:08:39.166Z,90.25
2022-12-18T03:11:13.645Z,90.31
2022-12-18T03:13:50.396Z,90.31
2022-12-18T03:16:23.890Z,90.35
2022-12-18T03:19:01.069Z,90.30
2022-12-18T03:21:33.504Z,90.32
2022-12-18T03:24:02.021Z,90.31
2022-12-18T03:26:30.759Z,90.26
2022-12-18T03:29:05.943Z,90.09
2022-12-18T03:31:33.914Z,90.19
2022-12-18T03:34:04.869Z,90.26
2022-12-18T03:36:31.508Z,90.28
2022-12-18T03:38:58.041Z,90.45
2022-12-18T03:41:34.922Z,90.65
2022-12-18T04:03:50.405Z,90.69
2022-12-18T04:06:17.987Z,90.65
2022-12-18T04:08:45.315Z,90.44
2022-12-18T04:11:11.924Z,90.36
2022-12-18T04:13:40.471Z,90.42
2022-12-18T04:16:07.799Z,90.54
2022-12-18T04:18:34.535Z,90.60
2022-12-18T04:21:01.119Z,90.64
2022-12-18T04:23:27.676Z,90.60
2022-12-18T04:25:54.187Z,90.63
2022-12-18T04:28:21.305Z,90.73
2022-12-18T04:30:48.445Z,90.81
2022-12-18T04:33:17.942Z,90.79
2022-12-18T04:35:44.592Z,90.69
2022-12-18T04:38:11.552Z,90.43
2022-12-18T04:40:38.725Z,90.47
2022-12-18T04:43:05.906Z,90.43
2022-12-18T04:45:33.238Z,90.49
2022-12-18T04:48:00.686Z,90.35
2022-12-18T04:50:27.989Z,90.28
2022-12-18T04:52:54.647Z,90.30
2022-12-18T04:55:21.717Z,90.47
2022-12-18T04:57:48.192Z,90.24
2022-12-18T05:00:16.484Z,90.28
2022-12-18T05:02:43.094Z,90.36
2022-12-18T05:05:10.019Z,90.35
2022-12-18T05:07:36.774Z,90.29
2022-12-18T05:10:03.799Z,90.22
2022-12-18T05:12:32.178Z,90.34
2022-12-18T05:14:58.717Z,90.49
2022-12-18T05:17:25.244Z,90.54
2022-12-18T05:19:51.831Z,90.60
2022-12-18T05:22:18.305Z,90.64
2022-12-18T05:24:44.868Z,90.62
2022-12-18T05:27:11.410Z,90.60
2022-12-18T05:29:37.889Z,90.70
2022-12-18T05:32:04.638Z,90.71
2022-12-18T05:34:31.462Z,90.68
2022-12-18T05:36:57.898Z,90.62
2022-12-18T05:39:24.414Z,90.76
2022-12-18T05:41:50.977Z,90.92
2022-12-18T05:44:17.499Z,91.24
2022-12-18T05:46:44.297Z,91.25
2022-12-18T05:49:10.894Z,91.20
2022-12-18T05:51:37.523Z,91.26
2022-12-18T05:54:04.127Z,91.33
2022-12-18T05:56:32.377Z,91.18
2022-12-18T05:58:58.863Z,90.82
2022-12-18T06:01:27.542Z,91.07
2022-12-18T06:03:54.797Z,91.09
2022-12-18T06:06:24.804Z,91.10
2022-12-18T06:08:52.308Z,91.20
2022-12-18T06:11:22.348Z,91.11
2022-12-18T06:13:58.673Z,91.05
2022-12-18T06:16:26.539Z,90.93
2022-12-18T06:18:53.077Z,90.74
2022-12-18T06:21:19.727Z,90.77
2022-12-18T06:23:46.434Z,90.92
2022-12-18T06:26:13.805Z,90.89
2022-12-18T06:28:40.649Z,90.55
2022-12-18T06:31:08.160Z,90.52
2022-12-18T06:33:36.067Z,90.64
2022-12-18T06:36:04.120Z,90.70
2022-12-18T06:38:30.767Z,90.55
2022-12-18T06:40:57.593Z,90.84
2022-12-18T06:43:24.079Z,90.87
2022-12-18T06:45:53.785Z,90.89
2022-12-18T06:48:21.009Z,90.97
2022-12-18T06:50:47.965Z,91.06
2022-12-18T06:53:14.803Z,91.21
2022-12-18T06:55:41.268Z,91.06
2022-12-18T06:58:08.158Z,91.04
2022-12-18T07:00:35.077Z,90.83
2022-12-18T07:03:01.624Z,90.76
2022-12-18T07:05:28.176Z,90.79
2022-12-18T07:07:54.690Z,90.86
2022-12-18T07:10:21.318Z,90.79
2022-12-18T07:12:47.926Z,90.90
2022-12-18T07:15:15.928Z,90.92
2022-12-18T07:17:42.464Z,90.88
2022-12-18T07:20:09.838Z,90.83
2022-12-18T07:22:36.344Z,90.84
2022-12-18T07:25:02.954Z,90.69
2022-12-18T07:27:29.560Z,90.45
2022-12-18T07:33:40.565Z,90.71
2022-12-18T07:36:10.773Z,90.85
2022-12-18T07:38:38.137Z,90.87
2022-12-18T07:41:09.744Z,90.84
2022-12-18T07:43:37.660Z,90.81
2022-12-18T07:46:05.571Z,90.80
2022-12-18T07:48:32.730Z,90.75
2022-12-18T07:51:05.579Z,90.43
2022-12-18T07:53:34.415Z,90.06
2022-12-18T07:56:31.469Z,89.85
2022-12-18T07:58:50.798Z,89.28
2022-12-18T08:01:17.492Z,88.36
2022-12-18T08:03:44.247Z,87.55
2022-12-18T08:06:11.081Z,86.71
2022-12-18T08:08:38.075Z,86.32
2022-12-18T08:11:04.839Z,85.97
2022-12-18T08:13:31.376Z,85.40
2022-12-18T08:16:03.702Z,84.88
2022-12-18T08:18:30.492Z,84.28
2022-12-18T08:20:57.049Z,83.61
2022-12-18T08:23:25.581Z,83.51
2022-12-18T08:25:55.097Z,83.39
2022-12-18T08:28:21.614Z,83.31
2022-12-18T08:30:53.153Z,82.98
2022-12-18T08:33:19.847Z,83.15
2022-12-18T08:35:46.456Z,82.46
2022-12-18T08:38:12.980Z,82.21
2022-12-18T08:40:42.610Z,82.40
2022-12-18T08:43:30.151Z,81.96
2022-12-18T08:45:56.725Z,81.28
2022-12-18T08:48:23.706Z,81.50
2022-12-18T08:51:00.475Z,80.99
2022-12-18T08:53:32.707Z,80.74
2022-12-18T08:56:01.889Z,80.14
2022-12-18T08:58:28.445Z,79.77
2022-12-18T09:00:55.111Z,79.23
2022-12-18T09:03:23.667Z,78.96
2022-12-18T09:05:50.361Z,78.71
2022-12-18T09:08:17.037Z,77.22
2022-12-18T09:10:45.373Z,76.82
2022-12-18T09:13:12.896Z,77.56
2022-12-18T09:15:43.896Z,77.84
2022-12-18T09:18:10.807Z,78.07
2022-12-18T09:20:37.917Z,79.21
2022-12-18T09:23:05.514Z,79.23
2022-12-18T09:25:36.826Z,79.12
2022-12-18T09:28:05.779Z,79.33
2022-12-18T09:30:34.387Z,78.97
2022-12-18T09:33:02.621Z,77.54
2022-12-18T09:35:29.165Z,77.19
2022-12-18T09:37:55.875Z,76.77
2022-12-18T09:40:26.460Z,76.09
2022-12-18T09:42:59.911Z,75.43
2022-12-18T09:45:26.536Z,75.79
2022-12-18T09:47:56.078Z,76.11
2022-12-18T09:50:30.990Z,75.92
2022-12-18T09:53:03.903Z,75.59
2022-12-18T09:55:39.207Z,75.64
2022-12-18T09:58:34.675Z,75.36
2022-12-18T10:01:01.213Z,75.25
2022-12-18T10:03:27.954Z,75.28
2022-12-18T10:06:06.939Z,75.52
2022-12-18T10:09:00.983Z,75.07
2022-12-18T10:11:42.402Z,75.36
2022-12-18T10:14:40.103Z,74.54
2022-12-18T10:17:35.541Z,74.12
2022-12-18T10:20:14.513Z,74.04
2022-12-18T10:23:12.881Z,74.13
2022-12-18T10:26:00.658Z,73.32
2022-12-18T10:28:28.508Z,73.09
2022-12-18T10:30:55.131Z,73.06
2022-12-18T10:33:24.855Z,72.55
2022-12-18T10:35:52.414Z,72.21
2022-12-18T10:38:24.342Z,71.78
2022-12-18T10:41:04.765Z,71.57
2022-12-18T10:43:40.014Z,71.88
2022-12-18T10:46:10.374Z,71.84
2022-12-18T10:48:42.559Z,71.45
2022-12-18T10:51:12.712Z,71.86
2022-12-18T10:53:42.787Z,71.75
2022-12-18T10:56:10.099Z,72.02
2022-12-18T10:58:46.750Z,71.48
2022-12-18T11:01:14.911Z,71.70
2022-12-18T11:03:41.483Z,71.55
2022-12-18T11:06:19.408Z,71.40
2022-12-18T11:08:58.418Z,71.65
2022-12-18T11:11:25.901Z,71.24
2022-12-18T11:14:43.516Z,71.51
2022-12-18T11:17:27.457Z,71.63
2022-12-18T11:20:08.133Z,71.33
2022-12-18T11:22:37.160Z,71.23
2022-12-18T11:25:32.590Z,71.49
2022-12-18T11:28:01.552Z,70.97
2022-12-18T11:30:32.482Z,71.26
2022-12-18T11:33:20.318Z,71.20
2022-12-18T11:35:57.607Z,71.11
2022-12-18T11:38:53.266Z,70.81
2022-12-18T11:41:53.504Z,71.49
2022-12-18T11:44:30.759Z,71.77
2022-12-18T11:47:06.935Z,71.83
2022-12-18T11:49:37.293Z,71.71
2022-12-18T11:55:39.188Z,72.06
2022-12-18T12:04:52.119Z,73.12
2022-12-18T12:13:52.324Z,73.49
2022-12-18T12:16:33.699Z,73.36
2022-12-18T12:22:34.496Z,73.57
2022-12-18T12:25:21.997Z,73.73
2022-12-18T12:28:13.672Z,74.08
2022-12-18T12:31:04.454Z,74.03
2022-12-18T12:34:02.285Z,74.16
2022-12-18T12:36:54.197Z,74.30
2022-12-18T12:39:26.114Z,74.27
2022-12-18T12:42:15.338Z,74.28
2022-12-18T12:45:04.603Z,74.48
2022-12-18T12:47:41.936Z,73.98
2022-12-18T12:50:16.099Z,74.29
2022-12-18T12:52:51.723Z,74.25
2022-12-18T12:55:31.395Z,74.53
2022-12-18T12:58:53.901Z,74.50
2022-12-18T13:01:39.489Z,74.75
2022-12-18T13:04:43.483Z,74.47
2022-12-18T13:07:27.993Z,74.39
2022-12-18T13:10:27.056Z,74.33
2022-12-18T13:13:00.835Z,74.46
2022-12-18T13:15:52.361Z,74.27
2022-12-18T13:18:20.659Z,74.08
2022-12-18T13:21:05.049Z,74.31
2022-12-18T13:23:37.707Z,74.43
2022-12-18T13:26:07.334Z,74.64
2022-12-18T13:28:46.477Z,74.53
2022-12-18T13:31:42.689Z,74.32
2022-12-18T13:34:29.670Z,74.19
2022-12-18T13:37:17.853Z,73.87
2022-12-18T13:39:44.702Z,74.15
2022-12-18T13:42:31.446Z,74.49
2022-12-18T13:44:58.910Z,74.47
2022-12-18T13:47:44.444Z,74.52
2022-12-18T13:50:29.714Z,74.50
2022-12-18T13:53:02.797Z,74.39
2022-12-18T13:55:29.887Z,74.38
2022-12-18T13:58:18.069Z,74.38
2022-12-18T14:00:45.948Z,74.42
2022-12-18T14:03:29.616Z,74.27
2022-12-18T14:06:11.720Z,74.28
2022-12-18T14:08:41.053Z,74.38
2022-12-18T14:11:18.810Z,74.40
2022-12-18T14:13:48.900Z,74.66
2022-12-18T14:16:16.907Z,74.69
2022-12-18T14:18:50.591Z,74.59
2022-12-18T14:21:23.355Z,74.74
2022-12-18T14:24:03.362Z,74.82
2022-12-18T14:26:31.753Z,74.72
2022-12-18T14:29:21.561Z,74.85
2022-12-18T14:32:08.393Z,74.92
2022-12-18T14:34:37.707Z,75.21
2022-12-18T14:37:05.386Z,75.20
2022-12-18T14:39:32.011Z,75.16
2022-12-18T14:41:58.570Z,75.11
2022-12-18T14:44:28.592Z,75.37
2022-12-18T14:47:03.817Z,75.11
2022-12-18T14:49:36.387Z,75.05
2022-12-18T14:52:06.942Z,74.99
2022-12-18T14:54:38.202Z,75.11
2022-12-18T14:57:26.000Z,75.09
2022-12-18T14:59:52.662Z,74.97
2022-12-18T15:02:27.428Z,75.04
2022-12-18T15:05:23.558Z,74.93
2022-12-18T15:07:59.682Z,74.95
2022-12-18T15:10:32.422Z,74.91
2022-12-18T15:13:18.848Z,75.02
2022-12-18T15:15:46.533Z,75.09
2022-12-18T15:18:17.897Z,75.05
2022-12-18T15:20:53.119Z,75.10
2022-12-18T15:26:06.319Z,75.13
2022-12-18T15:28:37.973Z,75.00
2022-12-18T15:31:14.771Z,74.92
2022-12-18T15:33:53.397Z,75.05
2022-12-18T15:36:26.311Z,75.30
2022-12-18T15:38:56.167Z,75.22
2022-12-18T15:41:35.830Z,75.29
2022-12-18T15:44:03.998Z,75.52
2022-12-18T15:49:12.011Z,75.75
2022-12-18T15:51:40.133Z,75.88
2022-12-18T15:54:13.986Z,76.20
2022-12-18T15:57:02.188Z,76.11
2022-12-18T15:59:30.496Z,76.24
2022-12-18T16:01:57.325Z,76.47
2022-12-18T16:07:14.771Z,76.85
2022-12-18T16:09:42.990Z,77.17
2022-12-18T16:12:19.047Z,77.35
2022-12-18T16:14:46.524Z,77.47
2022-12-18T16:17:14.815Z,77.63
2022-12-18T16:22:25.009Z,77.96
2022-12-18T16:27:33.759Z,78.49
2022-12-18T16:30:00.709Z,78.64
2022-12-18T16:32:35.908Z,78.71
2022-12-18T16:35:02.459Z,78.77
2022-12-18T16:37:30.534Z,78.95
2022-12-18T16:39:57.033Z,78.98
2022-12-18T16:42:23.568Z,79.07
2022-12-18T16:44:50.738Z,79.40
2022-12-18T16:47:18.206Z,79.31
2022-12-18T16:52:29.939Z,79.54
2022-12-18T16:57:38.321Z,79.66
2022-12-18T17:02:46.719Z,79.77
2022-12-18T17:05:14.464Z,79.76
2022-12-18T17:07:41.109Z,79.82
2022-12-18T17:12:51.360Z,79.86
2022-12-18T17:17:58.210Z,80.09
2022-12-18T17:20:24.696Z,80.21
2022-12-18T17:25:32.732Z,80.10
2022-12-18T17:30:43.017Z,80.18
2022-12-18T17:35:54.148Z,80.47
2022-12-18T17:38:20.715Z,80.26
2022-12-18T17:40:48.398Z,80.46
2022-12-18T17:43:17.461Z,80.55
2022-12-18T17:45:43.974Z,80.66
2022-12-18T17:48:12.999Z,80.73
2022-12-18T17:50:39.731Z,80.63
2022-12-18T17:58:41.159Z,80.81
2022-12-18T18:03:57.914Z,80.72
2022-12-18T18:09:11.185Z,80.99
2022-12-18T18:12:02.452Z,80.97
2022-12-18T18:14:33.637Z,80.89
2022-12-18T18:17:04.978Z,80.83
2022-12-18T18:22:12.660Z,80.92
2022-12-18T18:24:40.420Z,80.87
2022-12-18T18:29:48.998Z,80.99
2022-12-18T18:34:55.846Z,81.00
2022-12-18T18:40:05.801Z,81.00
2022-12-18T18:42:32.253Z,80.89
2022-12-18T18:45:00.188Z,81.07
2022-12-18T18:47:30.573Z,81.01
2022-12-18T18:49:58.209Z,80.89
2022-12-18T18:52:26.169Z,81.01
2022-12-18T19:01:30.310Z,80.96
2022-12-18T19:03:57.046Z,81.17
2022-12-18T19:06:37.079Z,81.11
2022-12-18T19:09:07.129Z,81.12
2022-12-18T19:11:52.247Z,81.02
2022-12-18T19:14:19.115Z,80.79
2022-12-18T19:16:49.724Z,80.88
2022-12-18T19:19:21.126Z,81.01
2022-12-18T19:21:50.770Z,80.80
2022-12-18T19:26:58.243Z,80.66
2022-12-18T19:29:25.233Z,80.64
2022-12-18T19:34:32.194Z,80.64
2022-12-18T19:39:40.407Z,80.62
2022-12-18T19:44:48.746Z,80.40
2022-12-18T19:47:15.152Z,80.39
2022-12-18T19:49:50.824Z,80.38
2022-12-18T19:52:17.374Z,80.39
2022-12-18T19:54:43.925Z,80.35
2022-12-18T19:59:56.495Z,80.28
2022-12-18T20:02:23.405Z,80.22
2022-12-18T20:04:51.589Z,80.25
2022-12-18T20:07:19.249Z,80.30
2022-12-18T20:10:01.358Z,80.33
2022-12-18T20:12:32.218Z,80.26
2022-12-18T20:17:39.517Z,80.22
2022-12-18T20:22:49.308Z,80.32
2022-12-18T20:27:58.261Z,80.29
2022-12-18T20:30:24.739Z,80.45
2022-12-18T20:32:58.948Z,80.45
2022-12-18T20:35:28.329Z,80.37
2022-12-18T20:37:55.939Z,80.35
2022-12-18T20:40:26.645Z,80.24
2022-12-18T20:42:53.210Z,80.33
2022-12-18T20:45:19.813Z,80.12
2022-12-18T20:50:28.376Z,80.14
2022-12-18T20:55:46.305Z,80.03
2022-12-18T20:58:13.189Z,80.08
2022-12-18T21:00:40.891Z,80.08
2022-12-18T21:03:09.100Z,80.01
2022-12-18T21:08:18.350Z,80.00
2022-12-18T21:13:25.202Z,80.39
2022-12-18T21:18:35.104Z,80.06
2022-12-18T21:23:44.278Z,80.00
